createdAt,value
2022-08-27T00:00:46.662Z,101085.41
2022-08-27T00:03:13.208Z,101095.09
2022-08-27T00:05:40.758Z,101147.53
2022-08-27T00:08:09.495Z,101139.19
2022-08-27T00:10:36.014Z,101072.06
2022-08-27T00:13:02.421Z,100967.22
2022-08-27T00:15:29.576Z,101113.25
2022-08-27T00:17:56.032Z,101101.41
2022-08-27T00:20:25.886Z,101143.50
2022-08-27T00:22:53.197Z,101082.78
2022-08-27T00:25:20.793Z,101082.69
2022-08-27T00:27:47.177Z,101113.06
2022-08-27T00:30:16.188Z,101135.53
2022-08-27T00:32:43.318Z,101133.59
2022-08-27T00:35:10.093Z,101105.44
2022-08-27T00:37:36.869Z,101090.81
2022-08-27T00:40:09.630Z,101137.56
2022-08-27T00:42:36.092Z,101084.97
2022-08-27T00:45:05.952Z,101131.88
2022-08-27T00:47:40.580Z,101132.81
2022-08-27T00:50:14.441Z,101009.88
2022-08-27T00:53:03.053Z,101132.44
2022-08-27T00:55:37.637Z,101081.78
2022-08-27T00:58:16.282Z,101132.56
2022-08-27T01:00:44.928Z,101076.91
2022-08-27T01:03:12.145Z,100985.28
2022-08-27T01:05:39.149Z,101128.44
2022-08-27T01:08:13.729Z,101095.03
2022-08-27T01:10:41.929Z,101123.22
2022-08-27T01:13:10.294Z,101006.53
2022-08-27T01:15:41.049Z,101121.19
2022-08-27T01:18:12.223Z,101133.38
2022-08-27T01:21:04.373Z,101116.47
2022-08-27T01:23:52.332Z,101038.50
2022-08-27T01:26:18.841Z,101092.88
2022-08-27T01:28:45.820Z,101075.47
2022-08-27T01:31:13.112Z,101095.66
2022-08-27T01:33:39.763Z,101059.72
2022-08-27T01:36:06.900Z,101113.78
2022-08-27T01:38:34.330Z,101092.94
2022-08-27T01:41:01.814Z,101106.13
2022-08-27T01:43:29.284Z,101064.78
2022-08-27T01:45:55.707Z,101109.75
2022-08-27T01:48:22.606Z,100989.88
2022-08-27T01:50:50.186Z,101076.84
2022-08-27T01:53:23.258Z,101101.69
2022-08-27T01:55:51.656Z,101099.16
2022-08-27T01:58:21.030Z,101106.47
2022-08-27T02:00:51.943Z,101060.56
2022-08-27T02:03:22.905Z,101094.06
2022-08-27T02:05:49.434Z,101050.78
2022-08-27T02:08:17.577Z,101097.44
2022-08-27T02:10:45.919Z,101093.94
2022-08-27T02:13:13.413Z,101103.72
2022-08-27T02:15:41.484Z,101099.25
2022-08-27T02:18:09.753Z,101085.72
2022-08-27T02:20:36.866Z,101101.19
2022-08-27T02:23:04.675Z,101100.69
2022-08-27T02:25:31.141Z,101062.69
2022-08-27T02:28:00.140Z,101090.06
2022-08-27T02:30:28.046Z,101092.72
2022-08-27T02:32:54.443Z,101060.13
2022-08-27T02:35:24.096Z,101094.63
2022-08-27T02:37:51.613Z,100965.84
2022-08-27T02:40:21.251Z,101070.59
2022-08-27T02:42:47.860Z,101090.41
2022-08-27T02:45:16.470Z,101091.47
2022-08-27T02:47:43.378Z,101041.50
2022-08-27T02:50:11.081Z,100896.91
2022-08-27T02:52:37.836Z,101069.91
2022-08-27T02:55:05.316Z,101067.56
2022-08-27T02:57:36.661Z,101016.66
2022-08-27T03:00:06.496Z,101083.22
2022-08-27T03:02:33.033Z,101085.78
2022-08-27T03:04:59.484Z,101052.38
2022-08-27T03:07:25.944Z,101080.13
2022-08-27T03:09:52.687Z,101040.31
2022-08-27T03:12:19.382Z,100964.47
2022-08-27T03:14:49.114Z,100827.94
2022-08-27T03:17:34.506Z,101071.44
2022-08-27T03:20:02.057Z,101024.88
2022-08-27T03:22:28.502Z,101005.41
2022-08-27T03:24:56.245Z,100988.97
2022-08-27T03:27:22.879Z,101064.78
2022-08-27T03:29:49.267Z,100982.91
2022-08-27T03:32:15.681Z,100963.88
2022-08-27T03:34:42.357Z,100997.50
2022-08-27T03:37:08.779Z,101061.63
2022-08-27T03:39:35.164Z,101074.13
2022-08-27T03:42:01.554Z,101014.00
2022-08-27T03:44:27.977Z,100966.63
2022-08-27T03:46:55.016Z,101026.25
2022-08-27T03:49:22.291Z,101003.53
2022-08-27T03:51:52.659Z,100994.13
2022-08-27T03:54:19.095Z,100995.91
2022-08-27T03:56:45.526Z,100991.38
2022-08-27T03:59:11.966Z,101038.56
2022-08-27T04:01:38.658Z,101071.59
2022-08-27T04:04:05.147Z,100991.88
2022-08-27T04:06:33.253Z,100974.47
2022-08-27T04:09:00.224Z,101041.97
2022-08-27T04:11:29.374Z,101000.69
2022-08-27T04:13:56.945Z,101001.75
2022-08-27T04:16:23.408Z,101010.22
2022-08-27T04:18:49.871Z,100891.31
2022-08-27T04:21:16.225Z,101043.13
2022-08-27T04:23:43.151Z,101083.69
2022-08-27T04:26:11.225Z,101081.66
2022-08-27T04:28:39.226Z,101084.31
2022-08-27T04:31:12.962Z,101055.59
2022-08-27T04:33:51.381Z,101089.47
2022-08-27T04:36:18.304Z,101045.44
2022-08-27T04:38:44.721Z,101002.47
2022-08-27T04:41:21.246Z,101065.69
2022-08-27T04:43:56.997Z,101097.25
2022-08-27T04:46:30.979Z,101106.47
2022-08-27T04:48:59.651Z,101035.00
2022-08-27T04:51:28.882Z,101122.03
2022-08-27T04:53:56.374Z,101054.50
2022-08-27T04:56:26.377Z,101113.25
2022-08-27T04:58:53.218Z,101075.38
2022-08-27T05:01:23.093Z,101115.19
2022-08-27T05:03:49.905Z,101122.38
2022-08-27T05:06:17.405Z,101126.00
2022-08-27T05:08:44.240Z,101067.38
2022-08-27T05:11:14.974Z,101114.72
2022-08-27T05:13:42.588Z,101129.75
2022-08-27T05:16:12.605Z,101127.09
2022-08-27T05:18:41.713Z,101134.31
2022-08-27T05:21:24.170Z,101133.88
2022-08-27T05:23:51.433Z,101128.56
2022-08-27T05:26:18.405Z,101104.75
2022-08-27T05:28:47.606Z,101000.72
2022-08-27T05:31:15.319Z,101070.91
2022-08-27T05:33:43.191Z,101164.50
2022-08-27T05:36:20.552Z,101043.94
2022-08-27T05:38:49.252Z,101086.28
2022-08-27T05:41:19.373Z,101137.47
2022-08-27T05:43:49.933Z,101130.59
2022-08-27T05:46:20.248Z,101135.88
2022-08-27T05:48:48.498Z,101140.66
2022-08-27T05:51:16.320Z,101134.84
2022-08-27T05:54:02.889Z,101111.72
2022-08-27T05:56:34.457Z,101087.72
2022-08-27T05:59:19.594Z,101131.66
2022-08-27T06:01:49.252Z,101135.47
2022-08-27T06:04:17.504Z,101110.69
2022-08-27T06:06:45.487Z,101086.09
2022-08-27T06:09:15.550Z,101144.78
2022-08-27T06:11:42.050Z,101133.03
2022-08-27T06:14:12.409Z,101118.09
2022-08-27T06:16:40.486Z,101138.66
2022-08-27T06:19:08.396Z,101144.78
2022-08-27T06:21:35.125Z,101112.47
2022-08-27T06:24:01.909Z,101091.06
2022-08-27T06:26:28.664Z,101107.19
2022-08-27T06:28:55.483Z,101085.56
2022-08-27T06:31:27.396Z,101139.91
2022-08-27T06:33:58.457Z,101140.75
2022-08-27T06:36:30.088Z,101053.75
2022-08-27T06:38:57.347Z,101128.25
2022-08-27T06:41:26.651Z,101146.38
2022-08-27T06:43:54.754Z,101140.66
2022-08-27T06:46:23.773Z,101083.31
2022-08-27T06:48:54.887Z,101130.59
2022-08-27T06:51:26.049Z,101149.66
2022-08-27T06:53:54.989Z,101090.09
2022-08-27T06:56:22.486Z,101145.63
2022-08-27T06:58:53.394Z,101146.78
2022-08-27T07:01:24.203Z,101076.59
2022-08-27T07:03:50.981Z,101146.03
2022-08-27T07:06:18.202Z,101146.59
2022-08-27T07:08:53.190Z,101125.19
2022-08-27T07:11:20.539Z,101134.19
2022-08-27T07:13:48.246Z,101128.78
2022-08-27T07:16:17.774Z,101123.06
2022-08-27T07:18:44.782Z,101062.72
2022-08-27T07:21:12.207Z,101078.47
2022-08-27T07:23:42.033Z,101139.91
2022-08-27T07:26:11.379Z,101135.34
2022-08-27T07:28:39.345Z,101134.38
2022-08-27T07:31:09.107Z,101090.97
2022-08-27T07:33:37.106Z,101132.22
2022-08-27T07:36:05.937Z,101078.75
2022-08-27T07:38:33.057Z,101084.34
2022-08-27T07:40:59.636Z,101063.28
2022-08-27T07:43:44.781Z,101040.19
2022-08-27T07:46:11.259Z,101055.84
2022-08-27T07:48:37.923Z,101138.19
2022-08-27T07:51:08.405Z,101137.97
2022-08-27T07:53:34.771Z,101101.69
2022-08-27T07:56:05.997Z,101139.31
2022-08-27T07:58:32.622Z,101143.34
2022-08-27T08:00:59.224Z,101108.75
2022-08-27T08:03:25.959Z,101103.75
2022-08-27T08:05:53.356Z,101067.88
2022-08-27T08:08:21.468Z,101092.09
2022-08-27T08:10:48.777Z,101148.44
2022-08-27T08:13:16.997Z,101057.66
2022-08-27T08:15:46.202Z,101144.91
2022-08-27T08:18:13.653Z,101137.63
2022-08-27T08:20:57.086Z,101105.09
2022-08-27T08:23:24.424Z,101066.19
2022-08-27T08:25:50.838Z,101066.56
2022-08-27T08:28:17.213Z,101125.69
2022-08-27T08:30:47.667Z,101134.50
2022-08-27T08:33:14.082Z,101083.38
2022-08-27T08:35:41.481Z,101102.75
2022-08-27T08:38:08.851Z,101156.84
2022-08-27T08:40:56.045Z,101144.88
2022-08-27T08:43:40.010Z,101089.78
2022-08-27T08:47:01.622Z,101081.81
2022-08-27T08:49:45.001Z,101078.91
2022-08-27T08:52:30.544Z,101156.63
2022-08-27T08:55:29.061Z,101148.50
2022-08-27T08:58:12.430Z,101102.34
2022-08-27T09:00:42.162Z,101112.25
2022-08-27T09:03:12.209Z,101104.88
2022-08-27T09:05:43.555Z,101167.63
2022-08-27T09:08:41.325Z,101134.56
2022-08-27T09:11:22.874Z,101175.09
2022-08-27T09:13:57.538Z,101177.88
2022-08-27T09:16:24.304Z,101098.72
2022-08-27T09:18:52.631Z,101085.22
2022-08-27T09:21:51.260Z,101178.72
2022-08-27T09:24:52.764Z,101176.91
2022-08-27T09:27:21.019Z,101134.66
2022-08-27T09:29:53.378Z,101044.53
2022-08-27T09:32:31.386Z,101183.47
2022-08-27T09:35:00.027Z,101180.56
2022-08-27T09:37:33.916Z,101187.91
2022-08-27T09:40:23.105Z,101178.25
2022-08-27T09:42:57.137Z,101177.06
2022-08-27T09:45:27.301Z,101135.25
2022-08-27T09:48:03.920Z,101180.06
2022-08-27T09:50:59.059Z,101187.22
2022-08-27T09:53:57.520Z,101189.38
2022-08-27T09:56:26.508Z,101189.31
2022-08-27T09:59:00.028Z,101122.44
2022-08-27T10:01:29.467Z,101190.59
2022-08-27T10:04:14.970Z,101133.19
2022-08-27T10:06:47.596Z,101121.47
2022-08-27T10:09:47.736Z,101189.88
2022-08-27T10:12:26.818Z,101136.34
2022-08-27T10:14:58.878Z,101186.50
2022-08-27T10:17:25.304Z,101186.22
2022-08-27T10:20:25.823Z,101205.47
2022-08-27T10:23:05.945Z,101191.28
2022-08-27T10:25:44.796Z,101194.66
2022-08-27T10:28:38.786Z,101122.78
2022-08-27T10:31:08.303Z,101186.13
2022-08-27T10:33:39.605Z,101134.31
2022-08-27T10:36:12.300Z,101184.19
2022-08-27T10:38:44.988Z,101112.78
2022-08-27T10:41:29.510Z,101182.69
2022-08-27T10:43:55.836Z,101191.19
2022-08-27T10:46:50.680Z,101190.38
2022-08-27T10:49:26.101Z,101107.97
2022-08-27T10:51:58.853Z,101182.00
2022-08-27T10:54:54.501Z,101170.25
2022-08-27T10:57:55.167Z,101049.41
2022-08-27T11:00:25.068Z,101165.38
2022-08-27T11:03:10.713Z,101187.22
2022-08-27T11:05:46.439Z,101139.50
2022-08-27T11:08:15.702Z,101181.59
2022-08-27T11:10:54.393Z,101111.00
2022-08-27T11:13:27.873Z,101182.06
2022-08-27T11:15:56.528Z,101115.06
2022-08-27T11:18:51.709Z,101180.28
2022-08-27T11:21:25.261Z,101177.66
2022-08-27T11:24:00.534Z,101037.34
2022-08-27T11:26:31.652Z,101155.91
2022-08-27T11:29:01.828Z,101138.63
2022-08-27T11:31:36.983Z,101176.47
2022-08-27T11:34:20.778Z,101136.22
2022-08-27T11:37:04.633Z,101163.28
2022-08-27T11:39:59.126Z,101171.06
2022-08-27T11:42:39.425Z,101027.19
2022-08-27T11:45:15.419Z,101087.66
2022-08-27T11:47:54.658Z,101076.97
2022-08-27T11:50:22.485Z,101135.25
2022-08-27T11:53:26.650Z,101103.75
2022-08-27T11:55:55.133Z,101071.09
2022-08-27T11:58:21.790Z,101154.34
2022-08-27T12:00:48.909Z,101020.63
2022-08-27T12:03:21.329Z,101168.47
2022-08-27T12:05:53.852Z,101165.47
2022-08-27T12:08:23.989Z,101164.34
2022-08-27T12:11:09.134Z,101162.09
2022-08-27T12:13:56.692Z,101172.28
2022-08-27T12:16:46.877Z,101166.13
2022-08-27T12:19:31.277Z,101158.13
2022-08-27T12:22:07.428Z,101176.09
2022-08-27T12:24:56.070Z,101109.84
2022-08-27T12:27:24.352Z,101176.16
2022-08-27T12:30:18.751Z,101169.41
2022-08-27T12:32:48.432Z,101164.22
2022-08-27T12:35:16.459Z,101157.50
2022-08-27T12:37:48.332Z,101175.56
2022-08-27T12:40:30.412Z,101157.59
2022-08-27T12:43:17.854Z,101116.63
2022-08-27T12:45:56.709Z,101164.56
2022-08-27T12:48:36.822Z,101163.72
2022-08-27T12:51:08.957Z,101155.03
2022-08-27T12:53:47.728Z,101149.16
2022-08-27T12:56:33.961Z,101055.22
2022-08-27T12:59:07.893Z,101150.81
2022-08-27T13:01:56.266Z,101154.63
2022-08-27T13:04:28.638Z,101157.41
2022-08-27T13:06:55.322Z,101152.78
2022-08-27T13:09:38.010Z,101118.59
2022-08-27T13:12:14.774Z,101123.47
2022-08-27T13:14:41.696Z,101153.78
2022-08-27T13:17:18.662Z,101133.91
2022-08-27T13:19:51.096Z,101155.06
2022-08-27T13:22:23.180Z,101162.31
2022-08-27T13:24:53.770Z,101156.56
2022-08-27T13:27:32.343Z,100998.03
2022-08-27T13:30:22.978Z,101103.78
2022-08-27T13:33:00.360Z,101101.16
2022-08-27T13:35:26.969Z,100990.34
2022-08-27T13:37:54.604Z,101103.88
2022-08-27T13:40:37.727Z,101141.22
2022-08-27T13:43:09.429Z,101020.41
2022-08-27T13:45:38.805Z,101141.44
2022-08-27T13:48:08.497Z,101133.78
2022-08-27T13:50:36.707Z,101150.97
2022-08-27T13:53:25.771Z,101149.41
2022-08-27T13:55:54.628Z,101095.66
2022-08-27T13:58:28.210Z,101102.44
2022-08-27T14:01:06.689Z,101098.22
2022-08-27T14:03:38.958Z,101145.31
2022-08-27T14:06:05.885Z,101144.41
2022-08-27T14:08:38.762Z,101141.31
2022-08-27T14:11:09.632Z,101142.50
2022-08-27T14:13:46.608Z,101135.56
2022-08-27T14:16:23.960Z,101079.06
2022-08-27T14:19:01.480Z,101035.81
2022-08-27T14:21:27.885Z,101104.69
2022-08-27T14:23:54.256Z,101082.72
2022-08-27T14:26:20.821Z,101106.09
2022-08-27T14:28:47.695Z,101152.72
2022-08-27T14:31:14.483Z,101145.47
2022-08-27T14:33:41.142Z,101071.00
2022-08-27T14:36:08.884Z,101115.47
2022-08-27T14:38:40.797Z,101147.72
2022-08-27T14:41:08.594Z,101036.41
2022-08-27T14:43:35.685Z,101149.28
2022-08-27T14:46:02.915Z,101152.06
2022-08-27T14:48:32.438Z,101153.94
2022-08-27T14:51:02.155Z,101136.59
2022-08-27T14:53:28.962Z,101141.75
2022-08-27T14:55:58.769Z,101115.06
2022-08-27T14:58:25.506Z,101047.13
2022-08-27T15:00:52.096Z,101046.31
2022-08-27T15:03:19.834Z,101168.28
2022-08-27T15:05:46.201Z,101157.72
2022-08-27T15:08:15.712Z,101081.53
2022-08-27T15:10:42.854Z,101017.09
2022-08-27T15:13:11.341Z,101141.84
2022-08-27T15:15:38.862Z,101157.72
2022-08-27T15:18:05.925Z,101106.72
2022-08-27T15:20:32.728Z,101094.75
2022-08-27T15:22:59.179Z,101117.38
2022-08-27T15:25:25.621Z,101109.53
2022-08-27T15:27:52.206Z,101158.34
2022-08-27T15:30:25.429Z,101109.47
2022-08-27T15:32:51.834Z,100983.38
2022-08-27T15:35:23.201Z,101154.63
2022-08-27T15:37:49.739Z,101083.56
2022-08-27T15:40:18.330Z,101085.69
2022-08-27T15:42:46.957Z,101174.75
2022-08-27T15:45:14.438Z,101163.94
2022-08-27T15:47:40.852Z,101178.44
2022-08-27T15:50:08.079Z,101161.84
2022-08-27T15:55:14.881Z,101145.56
2022-08-27T15:57:41.318Z,101167.19
2022-08-27T16:00:08.977Z,101130.66
2022-08-27T16:02:35.497Z,101147.25
2022-08-27T16:05:02.049Z,101148.53
2022-08-27T16:07:28.532Z,101171.31
2022-08-27T16:09:54.950Z,100909.66
2022-08-27T16:12:22.412Z,101138.13
2022-08-27T16:14:53.645Z,101152.34
2022-08-27T16:17:21.224Z,100997.56
2022-08-27T16:19:47.818Z,101148.78
2022-08-27T16:22:16.130Z,101101.28
2022-08-27T16:24:42.855Z,101151.28
2022-08-27T16:27:09.750Z,101148.63
2022-08-27T16:29:37.042Z,101167.94
2022-08-27T16:32:03.832Z,101029.63
2022-08-27T16:34:31.017Z,101178.41
2022-08-27T16:36:57.388Z,101098.25
2022-08-27T16:39:23.819Z,101083.34
2022-08-27T16:41:50.327Z,101175.03
2022-08-27T16:44:17.586Z,101172.94
2022-08-27T16:46:44.128Z,101078.28
2022-08-27T16:49:29.846Z,101135.91
2022-08-27T16:51:56.321Z,101135.47
2022-08-27T16:54:22.924Z,101114.09
2022-08-27T16:56:49.737Z,101133.50
2022-08-27T16:59:16.514Z,101129.81
2022-08-27T17:01:43.613Z,101118.56
2022-08-27T17:04:18.418Z,101167.97
2022-08-27T17:06:51.665Z,101178.91
2022-08-27T17:09:19.043Z,101159.47
2022-08-27T17:11:50.799Z,101174.69
2022-08-27T17:14:17.156Z,101182.00
2022-08-27T17:16:43.864Z,101145.41
2022-08-27T17:19:16.688Z,101173.94
2022-08-27T17:21:47.628Z,101110.16
2022-08-27T17:24:14.003Z,101177.16
2022-08-27T17:26:40.379Z,101072.34
2022-08-27T17:29:07.088Z,101181.06
2022-08-27T17:31:36.844Z,101098.84
2022-08-27T17:34:04.377Z,101059.84
2022-08-27T17:36:32.036Z,101144.13
2022-08-27T17:38:59.983Z,101137.59
2022-08-27T17:41:33.837Z,101059.91
2022-08-27T17:44:04.592Z,101196.13
2022-08-27T17:46:31.146Z,101188.25
2022-08-27T17:48:57.853Z,100959.16
2022-08-27T17:51:24.320Z,101114.72
2022-08-27T17:53:57.223Z,101125.69
2022-08-27T17:56:26.855Z,101135.53
2022-08-27T17:58:54.034Z,101032.63
2022-08-27T18:01:28.366Z,101205.19
2022-08-27T18:03:56.683Z,101132.47
2022-08-27T18:06:23.549Z,101164.72
2022-08-27T18:08:49.945Z,101143.38
2022-08-27T18:11:16.620Z,101153.53
2022-08-27T18:13:43.221Z,101212.34
2022-08-27T18:16:09.898Z,101191.03
2022-08-27T18:18:36.272Z,101117.63
2022-08-27T18:21:02.703Z,101221.25
2022-08-27T18:23:29.174Z,101179.72
2022-08-27T18:25:56.400Z,101135.03
2022-08-27T18:28:23.286Z,101220.19
2022-08-27T18:30:50.592Z,101034.81
2022-08-27T18:33:17.230Z,101165.28
2022-08-27T18:35:43.700Z,101128.94
2022-08-27T18:38:10.087Z,101199.00
2022-08-27T18:40:45.960Z,101222.94
2022-08-27T18:43:14.232Z,101228.13
2022-08-27T18:45:40.703Z,101177.84
2022-08-27T18:48:21.573Z,101231.16
2022-08-27T18:50:56.974Z,101196.00
2022-08-27T18:53:24.507Z,101233.94
2022-08-27T18:55:51.596Z,101233.22
2022-08-27T18:58:18.708Z,101176.56
2022-08-27T19:00:48.537Z,101217.44
2022-08-27T19:03:21.689Z,101213.22
2022-08-27T19:05:48.801Z,101243.88
2022-08-27T19:08:22.108Z,101235.56
2022-08-27T19:10:48.549Z,101239.06
2022-08-27T19:13:14.955Z,101147.28
2022-08-27T19:15:46.365Z,101241.00
2022-08-27T19:18:12.999Z,101242.97
2022-08-27T19:20:39.514Z,101172.41
2022-08-27T19:23:05.983Z,101207.06
2022-08-27T19:25:32.612Z,101173.16
2022-08-27T19:27:59.152Z,101179.78
2022-08-27T19:30:25.581Z,101259.28
2022-08-27T19:32:54.862Z,101260.75
2022-08-27T19:35:24.466Z,101179.19
2022-08-27T19:37:53.040Z,101206.84
2022-08-27T19:40:21.751Z,101267.22
2022-08-27T19:42:48.457Z,101269.78
2022-08-27T19:45:14.897Z,101270.59
2022-08-27T19:47:41.349Z,101241.00
2022-08-27T19:50:08.417Z,101205.50
2022-08-27T19:52:35.287Z,101278.03
2022-08-27T19:55:15.556Z,101267.50
2022-08-27T19:57:43.329Z,101231.00
2022-08-27T20:00:12.533Z,101234.13
2022-08-27T20:02:39.215Z,101222.41
2022-08-27T20:05:17.977Z,101253.38
2022-08-27T20:07:45.464Z,101242.84
2022-08-27T20:10:11.942Z,101284.72
2022-08-27T20:12:38.437Z,101184.28
2022-08-27T20:15:06.733Z,101275.41
2022-08-27T20:17:34.350Z,101189.09
2022-08-27T20:20:01.080Z,101252.91
2022-08-27T20:22:27.664Z,101269.22
2022-08-27T20:24:54.057Z,101272.38
2022-08-27T20:27:20.551Z,101253.66
2022-08-27T20:29:47.054Z,101275.16
2022-08-27T20:32:13.684Z,101233.75
2022-08-27T20:34:40.349Z,101241.44
2022-08-27T20:37:07.270Z,101276.38
2022-08-27T20:39:34.130Z,101234.69
2022-08-27T20:42:00.590Z,101219.59
2022-08-27T20:44:27.052Z,101283.78
2022-08-27T20:46:59.323Z,101283.91
2022-08-27T20:49:27.868Z,101266.13
2022-08-27T20:52:02.767Z,101283.91
2022-08-27T20:54:31.424Z,101218.28
2022-08-27T20:56:58.359Z,101295.03
2022-08-27T20:59:43.507Z,101261.91
2022-08-27T21:02:12.828Z,101293.13
2022-08-27T21:04:47.560Z,101294.19
2022-08-27T21:07:15.473Z,101295.19
2022-08-27T21:09:55.744Z,101280.31
2022-08-27T21:12:23.559Z,101149.47
2022-08-27T21:14:50.003Z,101267.63
2022-08-27T21:17:21.253Z,101209.84
2022-08-27T21:19:47.645Z,101254.69
2022-08-27T21:22:14.045Z,101296.13
2022-08-27T21:24:40.478Z,101271.22
2022-08-27T21:27:07.070Z,101222.03
2022-08-27T21:29:33.982Z,101230.16
2022-08-27T21:32:00.369Z,101229.66
2022-08-27T21:34:28.151Z,101300.50
2022-08-27T21:36:54.688Z,101275.09
2022-08-27T21:39:21.141Z,101230.97
2022-08-27T21:41:48.071Z,101232.91
2022-08-27T21:44:14.585Z,101244.28
2022-08-27T21:46:41.196Z,101311.63
2022-08-27T21:49:08.012Z,101297.38
2022-08-27T21:51:34.359Z,101258.44
2022-08-27T21:54:00.819Z,101312.75
2022-08-27T21:56:27.736Z,101309.34
2022-08-27T21:58:54.136Z,101269.41
2022-08-27T22:01:20.678Z,101299.91
2022-08-27T22:03:50.654Z,101318.91
2022-08-27T22:06:18.266Z,101315.41
2022-08-27T22:08:44.961Z,101312.13
2022-08-27T22:11:12.129Z,101314.69
2022-08-27T22:13:39.137Z,101273.19
2022-08-27T22:16:05.755Z,101284.53
2022-08-27T22:18:32.389Z,101300.41
2022-08-27T22:20:58.845Z,101290.38
2022-08-27T22:23:25.877Z,101272.09
2022-08-27T22:25:52.613Z,101280.22
2022-08-27T22:28:19.109Z,101311.13
2022-08-27T22:30:45.576Z,101294.34
2022-08-27T22:33:13.228Z,101236.75
2022-08-27T22:35:40.037Z,101271.13
2022-08-27T22:38:07.148Z,101294.09
2022-08-27T22:40:35.272Z,101306.44
2022-08-27T22:43:01.935Z,101285.63
2022-08-27T22:45:29.028Z,101318.06
2022-08-27T22:47:55.830Z,101267.84
2022-08-27T22:50:22.837Z,101265.56
2022-08-27T22:52:50.101Z,101318.91
2022-08-27T22:55:19.316Z,101251.91
2022-08-27T22:57:51.337Z,101315.75
2022-08-27T23:00:27.257Z,101322.41
2022-08-27T23:02:53.986Z,101326.88
2022-08-27T23:05:21.457Z,101291.66
2022-08-27T23:07:48.824Z,101319.25
2022-08-27T23:10:17.303Z,101303.53
2022-08-27T23:12:45.908Z,101263.94
2022-08-27T23:15:14.865Z,101322.63
2022-08-27T23:17:41.244Z,101314.06
2022-08-27T23:20:09.698Z,101320.09
2022-08-27T23:22:37.446Z,101225.81
2022-08-27T23:25:23.999Z,101323.56
2022-08-27T23:27:50.374Z,101232.69
2022-08-27T23:30:18.224Z,101329.88
2022-08-27T23:32:48.862Z,101238.63
2022-08-27T23:35:22.496Z,101254.31
2022-08-27T23:37:50.291Z,101331.38
2022-08-27T23:40:18.415Z,101337.78
2022-08-27T23:42:45.877Z,101330.78
2022-08-27T23:45:17.088Z,101301.47
2022-08-27T23:47:43.516Z,101333.78
2022-08-27T23:50:11.497Z,101321.22
2022-08-27T23:52:39.209Z,101321.69
2022-08-27T23:55:08.200Z,101284.63
2022-08-27T23:57:34.643Z,101329.41
